createdAt,value
2019-03-23T00:00:52.653Z,32.73
2019-03-23T00:03:33.610Z,30.73
2019-03-23T00:06:13.994Z,28.83
2019-03-23T00:08:55.140Z,35.50
2019-03-23T00:11:36.300Z,35.33
2019-03-23T00:14:17.054Z,33.13
2019-03-23T00:16:57.847Z,36.30
2019-03-23T00:19:38.973Z,30.97
2019-03-23T00:22:19.780Z,32.43
2019-03-23T00:25:00.894Z,35.50
2019-03-23T00:27:41.994Z,30.53
2019-03-23T00:30:22.722Z,30.50
2019-03-23T00:33:03.501Z,30.07
2019-03-23T00:35:44.471Z,30.03
2019-03-23T00:38:25.290Z,33.37
2019-03-23T00:41:05.990Z,31.43
2019-03-23T00:43:47.465Z,26.80
2019-03-23T00:46:28.779Z,25.73
2019-03-23T00:49:09.604Z,34.27
2019-03-23T00:51:50.363Z,25.00
2019-03-23T00:54:31.029Z,29.67
2019-03-23T00:57:11.542Z,25.50
2019-03-23T00:59:52.274Z,30.10
2019-03-23T01:02:33.083Z,28.73
2019-03-23T01:07:56.746Z,30.13
2019-03-23T01:10:37.658Z,26.33
2019-03-23T01:13:18.274Z,23.97
2019-03-23T01:15:59.107Z,31.60
2019-03-23T01:18:39.978Z,29.63
2019-03-23T01:21:20.515Z,31.13
2019-03-23T01:24:01.588Z,23.40
2019-03-23T01:26:42.156Z,24.20
2019-03-23T01:29:22.821Z,29.17
2019-03-23T01:32:03.524Z,25.40
2019-03-23T01:34:43.903Z,30.57
2019-03-23T01:37:24.629Z,31.93
2019-03-23T01:40:05.135Z,25.67
2019-03-23T01:42:46.134Z,32.13
2019-03-23T01:48:08.760Z,35.23
2019-03-23T01:50:49.388Z,27.97
2019-03-23T01:53:30.501Z,28.33
2019-03-23T01:56:11.211Z,31.33
2019-03-23T01:58:51.785Z,30.20
2019-03-23T02:01:33.062Z,27.70
2019-03-23T02:04:14.011Z,28.83
2019-03-23T02:06:54.689Z,29.80
2019-03-23T02:12:20.436Z,25.00
2019-03-23T02:15:01.310Z,25.27
2019-03-23T02:17:42.052Z,23.73
2019-03-23T02:20:22.901Z,26.93
2019-03-23T02:23:04.009Z,25.87
2019-03-23T02:25:45.264Z,27.40
2019-03-23T02:28:26.248Z,28.50
2019-03-23T02:31:07.642Z,22.53
2019-03-23T02:33:49.207Z,20.87
2019-03-23T02:36:30.733Z,27.63
2019-03-23T02:39:11.189Z,24.40
2019-03-23T02:41:52.070Z,25.03
2019-03-23T02:44:32.809Z,27.37
2019-03-23T02:47:13.294Z,27.60
2019-03-23T02:52:36.973Z,29.73
2019-03-23T02:55:18.098Z,23.80
2019-03-23T02:57:58.741Z,30.23
2019-03-23T03:03:22.928Z,26.17
2019-03-23T03:06:04.087Z,25.03
2019-03-23T03:08:44.562Z,22.70
2019-03-23T03:11:24.857Z,29.50
2019-03-23T03:14:05.933Z,28.57
2019-03-23T03:16:46.639Z,31.20
2019-03-23T03:19:27.972Z,29.17
2019-03-23T03:22:09.250Z,29.70
2019-03-23T03:27:37.979Z,34.13
2019-03-23T03:30:18.949Z,30.27
2019-03-23T03:33:00.084Z,25.07
2019-03-23T03:35:40.949Z,29.37
2019-03-23T03:38:21.458Z,26.37
2019-03-23T03:41:02.300Z,26.77
2019-03-23T03:43:43.032Z,21.63
2019-03-23T03:46:24.225Z,21.90
2019-03-23T03:49:12.223Z,25.50
2019-03-23T03:51:47.733Z,24.10
2019-03-23T03:54:28.451Z,32.77
2019-03-23T03:57:09.205Z,27.97
2019-03-23T04:02:39.393Z,27.97
2019-03-23T04:05:20.571Z,25.10
2019-03-23T04:08:11.237Z,27.37
2019-03-23T04:10:43.747Z,22.20
2019-03-23T04:13:24.405Z,26.10
2019-03-23T04:16:05.120Z,26.70
2019-03-23T04:18:45.902Z,30.10
2019-03-23T04:21:27.110Z,29.17
2019-03-23T04:24:07.831Z,32.27
2019-03-23T04:29:31.961Z,25.90
2019-03-23T04:32:13.073Z,27.37
2019-03-23T04:34:53.794Z,21.40
2019-03-23T04:37:34.553Z,18.67
2019-03-23T04:43:00.349Z,17.30
2019-03-23T04:45:40.989Z,19.80
2019-03-23T04:48:21.734Z,17.97
2019-03-23T04:51:02.412Z,16.50
2019-03-23T04:53:43.165Z,17.77
2019-03-23T04:56:24.267Z,15.43
2019-03-23T04:59:05.066Z,16.57
2019-03-23T05:01:45.800Z,17.00
2019-03-23T05:04:27.214Z,16.37
2019-03-23T05:07:08.057Z,18.90
2019-03-23T05:09:48.797Z,25.57
2019-03-23T05:12:29.872Z,22.23
2019-03-23T05:17:56.510Z,22.47
2019-03-23T05:20:37.217Z,25.53
2019-03-23T05:23:18.407Z,16.97
2019-03-23T05:25:58.926Z,17.27
2019-03-23T05:28:39.698Z,17.23
2019-03-23T05:31:20.486Z,16.37
2019-03-23T05:34:01.252Z,19.40
2019-03-23T05:36:42.998Z,23.57
2019-03-23T05:39:24.084Z,19.97
2019-03-23T05:42:05.346Z,25.73
2019-03-23T05:44:46.197Z,21.63
2019-03-23T05:47:27.007Z,19.73
2019-03-23T05:52:50.588Z,18.30
2019-03-23T05:55:31.604Z,16.17
2019-03-23T05:58:12.888Z,17.07
2019-03-23T06:00:53.540Z,16.50
2019-03-23T06:03:34.171Z,19.63
2019-03-23T06:09:04.769Z,19.97
2019-03-23T06:11:45.800Z,17.20
2019-03-23T06:14:27.179Z,17.40
2019-03-23T06:17:08.137Z,14.53
2019-03-23T06:19:49.059Z,14.23
2019-03-23T06:22:30.606Z,19.30
2019-03-23T06:27:58.852Z,16.97
2019-03-23T06:30:39.810Z,19.70
2019-03-23T06:33:20.524Z,19.30
2019-03-23T06:36:01.067Z,13.93
2019-03-23T06:38:42.429Z,13.17
2019-03-23T06:41:23.211Z,14.80
2019-03-23T06:44:03.714Z,21.63
2019-03-23T06:46:44.269Z,19.53
2019-03-23T06:49:25.231Z,22.77
2019-03-23T06:52:05.894Z,23.57
2019-03-23T06:54:46.829Z,17.93
2019-03-23T06:57:27.665Z,15.17
2019-03-23T07:00:08.748Z,18.90
2019-03-23T07:02:50.580Z,18.97
2019-03-23T07:05:32.018Z,20.53
2019-03-23T07:08:12.490Z,20.53
2019-03-23T07:13:42.291Z,26.10
2019-03-23T07:19:12.556Z,25.27
2019-03-23T07:24:41.388Z,29.07
2019-03-23T07:30:06.149Z,27.47
2019-03-23T07:32:47.321Z,24.67
2019-03-23T07:35:29.479Z,29.87
2019-03-23T07:38:10.337Z,28.57
2019-03-23T07:40:50.968Z,31.03
2019-03-23T07:43:31.695Z,35.20
2019-03-23T07:48:55.397Z,33.10
2019-03-23T07:54:25.235Z,37.67
2019-03-23T07:57:05.680Z,36.40
2019-03-23T07:59:46.802Z,36.67
2019-03-23T08:02:27.897Z,38.37
2019-03-23T08:05:08.756Z,42.07
2019-03-23T08:07:49.571Z,40.87
2019-03-23T08:10:30.744Z,40.70
2019-03-23T08:13:11.741Z,44.37
2019-03-23T08:15:52.674Z,49.13
2019-03-23T08:21:22.464Z,48.93
2019-03-23T08:24:03.120Z,53.67
2019-03-23T08:26:44.580Z,49.47
2019-03-23T08:29:25.047Z,49.43
2019-03-23T08:34:53.259Z,56.50
2019-03-23T08:40:17.759Z,53.47
2019-03-23T08:42:58.966Z,67.53
2019-03-23T08:45:39.943Z,77.70
2019-03-23T08:48:21.224Z,82.87
2019-03-23T08:51:02.399Z,85.10
2019-03-23T08:56:32.921Z,90.37
2019-03-23T08:59:14.071Z,93.10
2019-03-23T09:04:43.575Z,89.77
2019-03-23T09:07:24.727Z,88.17
2019-03-23T09:10:06.341Z,84.53
2019-03-23T09:12:47.430Z,88.50
2019-03-23T09:15:28.128Z,87.67
2019-03-23T09:18:09.273Z,88.30
2019-03-23T09:20:49.861Z,92.27
2019-03-23T09:23:30.824Z,96.83
2019-03-23T09:26:13.735Z,90.57
2019-03-23T09:31:44.352Z,88.73
2019-03-23T09:37:09.958Z,95.27
2019-03-23T09:39:51.047Z,98.07
2019-03-23T09:42:32.391Z,97.43
2019-03-23T09:45:14.505Z,94.60
2019-03-23T09:50:41.834Z,92.03
2019-03-23T09:56:08.670Z,100.17
2019-03-23T10:01:37.008Z,96.80
2019-03-23T10:04:17.462Z,96.90
2019-03-23T10:07:00.138Z,95.83
2019-03-23T10:12:25.878Z,99.30
2019-03-23T10:15:06.931Z,94.50
2019-03-23T10:17:47.964Z,100.37
2019-03-23T10:20:28.564Z,98.90
2019-03-23T10:25:54.267Z,86.53
2019-03-23T10:31:20.986Z,88.00
2019-03-23T10:34:02.369Z,81.13
2019-03-23T10:36:43.609Z,91.40
2019-03-23T10:42:11.255Z,83.70
2019-03-23T10:50:23.905Z,86.80
2019-03-23T10:53:05.300Z,96.97
2019-03-23T10:55:45.884Z,85.80
2019-03-23T11:01:10.100Z,91.97
2019-03-23T11:03:51.158Z,89.80
2019-03-23T11:06:32.141Z,92.90
2019-03-23T11:09:13.495Z,89.87
2019-03-23T11:11:54.077Z,91.17
2019-03-23T11:14:34.803Z,91.87
2019-03-23T11:17:15.576Z,94.97
2019-03-23T11:19:58.401Z,90.43
2019-03-23T11:22:39.292Z,94.07
2019-03-23T11:28:03.104Z,86.90
2019-03-23T11:30:44.194Z,91.90
2019-03-23T11:33:25.292Z,84.47
2019-03-23T11:36:06.255Z,83.37
2019-03-23T11:38:47.597Z,86.80
2019-03-23T11:41:28.515Z,95.50
2019-03-23T11:44:09.609Z,94.00
2019-03-23T11:46:50.185Z,87.03
2019-03-23T11:49:31.471Z,95.20
2019-03-23T11:52:12.244Z,84.87
2019-03-23T11:54:52.828Z,79.33
2019-03-23T11:57:33.528Z,94.53
2019-03-23T12:00:14.321Z,83.90
2019-03-23T12:02:55.237Z,92.40
2019-03-23T12:08:19.396Z,95.20
2019-03-23T12:11:03.038Z,87.90
2019-03-23T12:13:42.700Z,85.83
2019-03-23T12:16:23.810Z,87.57
2019-03-23T12:19:04.284Z,92.97
2019-03-23T12:21:45.389Z,96.03
2019-03-23T12:24:26.061Z,88.93
2019-03-23T12:27:06.805Z,86.00
2019-03-23T12:29:47.808Z,90.07
2019-03-23T12:32:28.990Z,84.03
2019-03-23T12:37:52.337Z,86.60
2019-03-23T12:40:33.612Z,78.53
2019-03-23T12:43:14.551Z,82.57
2019-03-23T12:45:55.508Z,78.40
2019-03-23T12:48:36.248Z,85.93
2019-03-23T12:54:02.356Z,83.33
2019-03-23T12:56:43.526Z,76.23
2019-03-23T13:02:07.119Z,82.73
2019-03-23T13:04:47.854Z,81.40
2019-03-23T13:07:29.125Z,78.53
2019-03-23T13:10:09.479Z,79.50
2019-03-23T13:12:50.618Z,80.90
2019-03-23T13:15:31.827Z,86.87
2019-03-23T13:18:12.869Z,81.13
2019-03-23T13:20:53.748Z,77.47
2019-03-23T13:23:34.746Z,82.97
2019-03-23T13:26:15.528Z,82.10
2019-03-23T13:28:56.154Z,74.37
2019-03-23T13:31:36.866Z,82.77
2019-03-23T13:34:17.581Z,89.77
2019-03-23T13:36:58.552Z,79.40
2019-03-23T13:39:39.330Z,81.90
2019-03-23T13:42:20.146Z,64.87
2019-03-23T13:45:01.009Z,67.20
2019-03-23T13:47:41.856Z,65.00
2019-03-23T13:50:22.731Z,61.83
2019-03-23T13:53:03.342Z,61.83
2019-03-23T13:55:44.184Z,65.47
2019-03-23T13:58:25.172Z,63.87
2019-03-23T14:01:06.160Z,55.33
2019-03-23T14:03:47.306Z,52.10
2019-03-23T14:06:27.684Z,53.43
2019-03-23T14:09:08.331Z,55.30
2019-03-23T14:11:54.995Z,51.10
2019-03-23T14:14:31.920Z,50.07
2019-03-23T14:17:12.885Z,50.00
2019-03-23T14:19:53.600Z,51.97
2019-03-23T14:22:34.304Z,57.70
2019-03-23T14:25:15.377Z,47.40
2019-03-23T14:27:56.488Z,57.63
2019-03-23T14:30:37.556Z,52.90
2019-03-23T14:33:19.036Z,47.63
2019-03-23T14:36:00.213Z,49.80
2019-03-23T14:38:40.839Z,55.23
2019-03-23T14:41:21.338Z,50.20
2019-03-23T14:44:02.133Z,45.83
2019-03-23T14:46:43.322Z,51.50
2019-03-23T14:49:24.953Z,51.87
2019-03-23T14:52:05.591Z,50.40
2019-03-23T14:54:47.163Z,46.67
2019-03-23T14:57:27.550Z,49.03
2019-03-23T15:00:08.004Z,47.10
2019-03-23T15:02:48.832Z,45.80
2019-03-23T15:05:29.389Z,44.47
2019-03-23T15:10:54.038Z,42.50
2019-03-23T15:13:36.550Z,43.03
2019-03-23T15:19:07.168Z,44.40
2019-03-23T15:24:34.473Z,46.20
2019-03-23T15:27:15.244Z,52.93
2019-03-23T15:29:56.425Z,44.07
2019-03-23T15:32:37.425Z,39.90
2019-03-23T15:35:18.444Z,46.40
2019-03-23T15:40:44.371Z,43.53
2019-03-23T15:43:25.311Z,42.17
2019-03-23T15:46:06.318Z,45.03
2019-03-23T15:48:47.016Z,48.73
2019-03-23T15:51:28.198Z,45.73
2019-03-23T15:54:09.045Z,41.87
2019-03-23T15:56:50.082Z,42.87
2019-03-23T15:59:31.725Z,42.00
2019-03-23T16:02:12.636Z,42.00
2019-03-23T16:04:53.692Z,42.60
2019-03-23T16:07:34.186Z,42.83
2019-03-23T16:10:14.804Z,42.13
2019-03-23T16:12:55.460Z,39.23
2019-03-23T16:15:36.014Z,45.73
2019-03-23T16:18:17.301Z,42.03
2019-03-23T16:20:57.779Z,41.23
2019-03-23T16:23:38.190Z,47.40
2019-03-23T16:26:18.781Z,45.33
2019-03-23T16:28:59.251Z,44.00
2019-03-23T16:31:39.770Z,46.93
2019-03-23T16:34:20.454Z,45.70
2019-03-23T16:37:01.036Z,45.77
2019-03-23T16:39:41.489Z,45.37
2019-03-23T16:42:22.352Z,50.07
2019-03-23T16:45:03.843Z,51.63
2019-03-23T16:47:44.302Z,49.47
2019-03-23T16:50:25.372Z,53.63
2019-03-23T16:53:06.234Z,41.00
2019-03-23T16:55:47.356Z,49.77
2019-03-23T16:58:28.567Z,50.27
2019-03-23T17:01:09.098Z,51.20
2019-03-23T17:03:49.512Z,53.00
2019-03-23T17:06:30.443Z,55.80
2019-03-23T17:09:11.148Z,50.70
2019-03-23T17:11:52.810Z,47.57
2019-03-23T17:14:33.709Z,54.73
2019-03-23T17:17:14.501Z,53.73
2019-03-23T17:22:40.209Z,56.93
2019-03-23T17:25:21.029Z,52.20
2019-03-23T17:28:01.348Z,53.73
2019-03-23T17:30:42.321Z,50.30
2019-03-23T17:33:22.922Z,54.80
2019-03-23T17:36:03.665Z,53.70
2019-03-23T17:41:27.725Z,57.87
2019-03-23T17:44:08.342Z,56.47
2019-03-23T17:46:48.871Z,56.37
2019-03-23T17:49:29.534Z,51.13
2019-03-23T17:52:10.320Z,53.70
2019-03-23T17:54:51.486Z,51.13
2019-03-23T17:57:31.990Z,46.50
2019-03-23T18:00:12.772Z,51.87
2019-03-23T18:02:54.031Z,51.67
2019-03-23T18:05:34.835Z,47.23
2019-03-23T18:11:00.776Z,53.20
2019-03-23T18:13:41.678Z,56.87
2019-03-23T18:16:22.778Z,52.83
2019-03-23T18:21:46.765Z,48.80
2019-03-23T18:24:28.040Z,50.33
2019-03-23T18:27:08.653Z,52.47
2019-03-23T18:29:49.406Z,60.10
2019-03-23T18:32:30.660Z,55.97
2019-03-23T18:35:11.648Z,50.80
2019-03-23T18:37:52.266Z,57.67
2019-03-23T18:40:33.024Z,53.27
2019-03-23T18:43:13.669Z,53.37
2019-03-23T18:45:54.465Z,51.27
2019-03-23T18:48:35.192Z,59.60
2019-03-23T18:51:16.049Z,53.10
2019-03-23T18:53:56.953Z,46.10
2019-03-23T18:56:37.451Z,58.10
2019-03-23T18:59:18.163Z,56.43
2019-03-23T19:01:59.196Z,55.40
2019-03-23T19:04:40.454Z,55.63
2019-03-23T19:07:21.170Z,59.10
2019-03-23T19:10:02.656Z,53.87
2019-03-23T19:12:43.942Z,56.83
2019-03-23T19:15:24.827Z,50.73
2019-03-23T19:18:06.086Z,59.87
2019-03-23T19:20:47.308Z,52.57
2019-03-23T19:23:27.828Z,54.60
2019-03-23T19:26:08.591Z,56.80
2019-03-23T19:28:49.609Z,54.20
2019-03-23T19:34:15.283Z,53.87
2019-03-23T19:36:55.997Z,54.70
2019-03-23T19:39:36.428Z,59.07
2019-03-23T19:42:17.255Z,51.33
2019-03-23T19:44:58.105Z,59.17
2019-03-23T19:47:39.093Z,51.93
2019-03-23T19:53:09.301Z,51.03
2019-03-23T19:55:50.048Z,55.40
2019-03-23T19:58:30.862Z,63.20
2019-03-23T20:01:12.460Z,63.00
2019-03-23T20:03:52.860Z,60.27
2019-03-23T20:06:33.620Z,59.30
2019-03-23T20:09:14.496Z,65.43
2019-03-23T20:11:55.622Z,63.97
2019-03-23T20:14:36.494Z,73.93
2019-03-23T20:17:17.100Z,68.97
2019-03-23T20:19:57.980Z,66.40
2019-03-23T20:22:39.075Z,71.37
2019-03-23T20:25:19.581Z,67.67
2019-03-23T20:28:00.059Z,71.37
2019-03-23T20:30:40.776Z,74.53
2019-03-23T20:33:21.553Z,74.83
2019-03-23T20:36:02.206Z,74.47
2019-03-23T20:38:42.765Z,74.10
2019-03-23T20:41:23.433Z,67.53
2019-03-23T20:44:09.327Z,77.67
2019-03-23T20:49:31.467Z,81.43
2019-03-23T20:52:12.570Z,78.90
2019-03-23T20:54:53.435Z,81.80
2019-03-23T20:57:37.579Z,78.10
2019-03-23T21:00:16.799Z,78.50
2019-03-23T21:02:58.024Z,85.97
2019-03-23T21:05:33.659Z,78.17
2019-03-23T21:07:58.686Z,80.93
2019-03-23T21:10:46.961Z,88.90
2019-03-23T21:13:35.338Z,82.53
2019-03-23T21:16:23.634Z,92.40
2019-03-23T21:19:12.998Z,83.13
2019-03-23T21:22:01.278Z,81.13
2019-03-23T21:24:49.582Z,78.37
2019-03-23T21:27:38.162Z,84.70
2019-03-23T21:30:26.895Z,83.70
2019-03-23T21:33:15.217Z,65.70
2019-03-23T21:36:03.622Z,76.23
2019-03-23T21:38:51.934Z,76.10
2019-03-23T21:41:40.540Z,66.37
2019-03-23T21:47:23.290Z,71.90
2019-03-23T21:50:32.208Z,63.57
2019-03-23T21:53:20.531Z,66.30
2019-03-23T21:59:09.220Z,64.50
2019-03-23T22:01:49.748Z,57.83
2019-03-23T22:04:30.973Z,67.40
2019-03-23T22:07:11.579Z,57.10
2019-03-23T22:09:52.572Z,66.60
2019-03-23T22:12:33.736Z,56.53
2019-03-23T22:15:14.873Z,55.93
2019-03-23T22:17:55.271Z,60.63
2019-03-23T22:20:36.296Z,61.40
2019-03-23T22:23:17.277Z,57.60
2019-03-23T22:25:57.674Z,54.70
2019-03-23T22:28:38.398Z,60.07
2019-03-23T22:31:18.952Z,51.73
2019-03-23T22:33:59.637Z,45.53
2019-03-23T22:36:41.084Z,49.33
2019-03-23T22:39:21.549Z,45.67
2019-03-23T22:42:02.165Z,45.00
2019-03-23T22:44:52.013Z,45.10
2019-03-23T22:47:26.108Z,55.53
2019-03-23T22:50:07.387Z,48.30
2019-03-23T22:52:48.199Z,51.93
2019-03-23T22:55:29.162Z,39.33
2019-03-23T22:58:10.720Z,37.40
2019-03-23T23:00:51.271Z,36.40
2019-03-23T23:03:32.055Z,39.67
2019-03-23T23:08:55.871Z,42.80
2019-03-23T23:11:37.084Z,41.33
2019-03-23T23:14:17.735Z,41.53
2019-03-23T23:16:58.436Z,35.30
2019-03-23T23:19:39.204Z,36.53
2019-03-23T23:25:05.023Z,40.77
2019-03-23T23:27:45.812Z,51.27
2019-03-23T23:30:26.255Z,42.40
2019-03-23T23:32:55.598Z,51.77
2019-03-23T23:35:43.891Z,42.83
2019-03-23T23:38:32.446Z,42.07
2019-03-23T23:41:20.744Z,44.50
2019-03-23T23:44:09.399Z,47.87
2019-03-23T23:46:57.681Z,46.50
2019-03-23T23:49:45.968Z,49.10
2019-03-23T23:52:34.264Z,39.60
2019-03-23T23:55:22.916Z,41.13
2019-03-23T23:58:03.756Z,42.07
